Airport details for: LHSM (Hungary)

Metar

LHSM 151545Z 07006KT 8000 -RA SCT005 OVC026 04/03 Q1002

General details

ICAO: LHSM
IATA: SOB
Name (city): Balaton
Major:
Country: Hungary
vACC: vACC Hungary
Description:

Hévíz-Balaton Airport, previously also known as Sármellék International Airport, is an international airport in Hungary located west of Lake Balaton, 1 km (0.6 mi) south-southwest of the village of Sármellék, Zala County and Keszthely. Its importance is due to the proximity of Lake Balaton, Hungary's most important holiday resort and the thermal spas of Hévíz and Zalakaros.

Scenery links:
FS9 scenery: Download
FSX/P3D scenery: Download
XP scenery: Download
Elevation: 408 ft.
Transition altitude: 9000 ft.
MSA: 8200 ft.
Latitude: 46.686389
Longitude: 17.159167
LHSM Charts
LHSM Notams
LHSM Online stations

Runways

Number Course Length Elevation Lat Lon ILS ILS freq ILS FAC GP
16 162° 8202ft / 2500 m 408ft 46.697267 17.154914 108.75 162° 3.0°
34 342° 8202ft / 2500 m 400ft 46.675511 17.163189 - - 3.0°